Terminal Aerodrome Forecast
Issued by NWS

Home | Current Version | Previous Version | Text Only | Print | Product List | Glossary Off
Versions: 1 2 3 4 5 6 7 8 9 10 11 12 13 14 15 16 17 18 19 20 21 22 23 24 25 26 27 28 29

532
FTUS43 KLOT 231921 AAA
TAFDPA
TAF AMD
KDPA 231921Z 2319/2418 19008KT P6SM VCTS BKN045CB BKN250
     FM232200 18007KT P6SM BKN050 BKN250
     FM240100 15004KT P6SM SCT060 BKN250
     FM241000 18009KT 3SM TSRA OVC025CB
     FM241300 21012G19KT P6SM SCT040=

USA.gov is the U.S. government's official web portal to all federal, state and local government web resources and services.